Time;durP1;ratioP1;P1;durP2;ratioP2;P2;SDS_P1;SDS_P2;PMS_P1;PMS_P2;Temp;Humidity;BMP_temperature;BMP_pressure;BME280_temperature;BME280_humidity;BME280_pressure;Samples;Min_cycle;Max_cycle;Signal;HPM_P1;HPM_P2
2022/12/19 00:00:44;;;;;;;1999.90;999.90;;;-0.20;99.90;;;;;;5002523;28;21115;-71
2022/12/19 00:03:11;;;;;;;1999.90;999.90;;;-0.20;99.90;;;;;;4985875;28;20471;-71
2022/12/19 00:05:38;;;;;;;1999.90;999.90;;;-0.30;99.90;;;;;;4985729;28;20459;-71
2022/12/19 00:08:05;;;;;;;1999.90;999.90;;;-0.40;99.90;;;;;;4986009;28;20450;-71
2022/12/19 00:10:32;;;;;;;1999.90;999.90;;;-0.30;99.90;;;;;;4985302;28;20454;-72
2022/12/19 00:12:59;;;;;;;1999.90;999.90;;;-0.30;99.90;;;;;;4985420;28;20496;-71
2022/12/19 00:15:27;;;;;;;1999.90;999.90;;;-0.30;99.90;;;;;;4987041;28;20454;-71
2022/12/19 00:17:54;;;;;;;1999.90;999.90;;;-0.30;99.90;;;;;;4990484;28;20511;-71
2022/12/19 00:20:21;;;;;;;1999.90;999.90;;;-0.20;99.90;;;;;;5016175;28;20452;-72
2022/12/19 00:22:47;;;;;;;1999.90;999.90;;;-0.10;99.90;;;;;;5024870;28;20459;-72
2022/12/19 00:25:14;;;;;;;1999.90;999.90;;;-0.10;99.90;;;;;;5021888;28;20468;-71
2022/12/19 00:27:41;;;;;;;1999.90;999.90;;;-0.10;99.90;;;;;;5004139;28;20468;-72
2022/12/19 00:30:09;;;;;;;1999.90;999.90;;;-0.10;99.90;;;;;;5004908;28;20453;-72
2022/12/19 00:32:37;;;;;;;1999.90;999.90;;;-0.10;99.90;;;;;;5003856;28;20856;-73
2022/12/19 00:35:05;;;;;;;1999.90;999.90;;;0.00;99.90;;;;;;4985904;28;20844;-70
2022/12/19 00:37:31;;;;;;;1999.90;999.90;;;0.00;99.90;;;;;;4985399;28;20446;-70
2022/12/19 00:39:58;;;;;;;1999.90;999.90;;;0.10;99.90;;;;;;4985435;28;20462;-72
2022/12/19 00:42:25;;;;;;;1999.90;999.90;;;0.00;99.90;;;;;;4985790;28;20446;-71
2022/12/19 00:44:52;;;;;;;1999.90;999.90;;;0.10;99.90;;;;;;4985467;28;20850;-71
2022/12/19 00:47:18;;;;;;;1999.90;999.90;;;0.10;99.90;;;;;;4985771;28;20827;-71
2022/12/19 00:49:49;;;;;;;1999.90;999.90;;;0.00;99.90;;;;;;5011055;28;21221;-70
2022/12/19 00:52:15;;;;;;;1999.90;999.90;;;0.00;99.90;;;;;;4993939;28;20561;-70
2022/12/19 00:54:42;;;;;;;1999.90;999.90;;;-0.10;99.90;;;;;;4985547;28;20925;-70
2022/12/19 00:57:09;;;;;;;1999.90;999.90;;;-0.10;99.90;;;;;;4986086;28;20525;-71
2022/12/19 00:59:36;;;;;;;1999.90;999.90;;;-0.10;99.90;;;;;;4984397;28;20525;-72
2022/12/19 01:02:02;;;;;;;1999.90;999.90;;;-0.10;99.90;;;;;;4985650;28;20443;-71
2022/12/19 01:04:29;;;;;;;1999.90;999.90;;;-0.10;99.90;;;;;;4992961;28;20486;-72
2022/12/19 01:06:58;;;;;;;1999.90;999.90;;;-0.10;99.90;;;;;;5007827;28;20442;-70
2022/12/19 01:09:24;;;;;;;1999.90;999.90;;;-0.10;99.90;;;;;;5003782;28;20446;-69
2022/12/19 01:14:36;;;;;;;1999.90;999.90;;;0.00;99.90;;;;;;4996503;28;20462;-72
2022/12/19 01:17:03;;;;;;;1999.90;999.90;;;-0.10;99.90;;;;;;5000569;28;20459;-72
2022/12/19 01:19:29;;;;;;;1999.90;999.90;;;0.00;99.90;;;;;;4992465;28;20442;-71
2022/12/19 01:21:57;;;;;;;1999.90;999.90;;;0.10;99.90;;;;;;5005715;28;20444;-72
2022/12/19 01:24:24;;;;;;;1999.90;999.90;;;0.10;99.90;;;;;;5004712;28;20482;-72
2022/12/19 01:26:51;;;;;;;1999.90;999.90;;;0.20;99.90;;;;;;4992755;28;20451;-72
2022/12/19 01:29:18;;;;;;;1999.90;999.90;;;0.20;99.90;;;;;;4989144;28;20450;-72
2022/12/19 01:31:44;;;;;;;1999.90;999.90;;;0.20;99.90;;;;;;5004775;28;20862;-71
2022/12/19 01:34:12;;;;;;;1999.90;999.90;;;0.30;99.90;;;;;;4993415;28;20471;-71
2022/12/19 01:36:39;;;;;;;1999.90;999.90;;;0.30;99.90;;;;;;4994299;28;20541;-71
2022/12/19 01:39:07;;;;;;;1999.90;999.90;;;0.30;99.90;;;;;;4993959;28;20457;-72
2022/12/19 01:41:34;;;;;;;1999.90;999.90;;;0.30;99.90;;;;;;5003006;28;20446;-71
2022/12/19 01:44:04;;;;;;;1999.90;999.90;;;0.30;99.90;;;;;;4993928;28;20464;-72
2022/12/19 01:46:34;;;;;;;1999.90;999.90;;;0.40;99.90;;;;;;4988246;28;20451;-73
2022/12/19 01:49:02;;;;;;;1999.90;999.90;;;0.40;99.90;;;;;;4997527;28;20442;-72
2022/12/19 01:51:34;;;;;;;1999.90;999.90;;;0.50;99.90;;;;;;4996143;28;20445;-73
2022/12/19 01:54:07;;;;;;;1999.90;999.90;;;0.50;99.90;;;;;;4993384;28;20489;-71
2022/12/19 01:56:39;;;;;;;1999.90;999.90;;;0.60;99.90;;;;;;4994884;28;20454;-71
2022/12/19 01:59:10;;;;;;;1999.90;999.90;;;0.60;99.90;;;;;;5001699;28;20457;-71
2022/12/19 02:01:39;;;;;;;1999.90;999.90;;;0.60;99.90;;;;;;4992384;28;21058;-72
2022/12/19 02:04:07;;;;;;;1999.90;999.90;;;0.60;99.90;;;;;;4991597;28;20853;-72
2022/12/19 02:06:34;;;;;;;1999.90;999.90;;;0.60;99.90;;;;;;5002657;28;20446;-71
2022/12/19 02:09:02;;;;;;;1999.90;999.90;;;0.60;99.90;;;;;;5005107;28;20471;-72
2022/12/19 02:11:31;;;;;;;1999.90;999.90;;;0.70;99.90;;;;;;4991197;28;20454;-72
2022/12/19 02:13:59;;;;;;;1999.90;999.90;;;0.70;99.90;;;;;;4993271;28;20930;-71
2022/12/19 02:16:38;;;;;;;1999.90;999.90;;;0.70;99.90;;;;;;5006347;28;20462;-72
2022/12/19 02:19:34;;;;;;;1999.90;999.90;;;0.80;99.90;;;;;;4990847;28;21027;-73
2022/12/19 02:22:06;;;;;;;1999.90;999.90;;;0.80;99.90;;;;;;5003137;28;20446;-73
2022/12/19 02:24:56;;;;;;;1999.90;999.90;;;0.80;99.90;;;;;;4997849;28;20469;-74
2022/12/19 02:27:54;;;;;;;1999.90;999.90;;;0.90;99.90;;;;;;4997137;28;20458;-72
2022/12/19 02:30:49;;;;;;;1999.90;999.90;;;0.90;99.90;;;;;;5002684;28;21109;-73
2022/12/19 02:33:19;;;;;;;1999.90;999.90;;;0.80;99.90;;;;;;4995723;28;21261;-73
2022/12/19 02:35:58;;;;;;;1999.90;999.90;;;0.90;99.90;;;;;;4993892;28;20454;-73
2022/12/19 02:38:30;;;;;;;1999.90;999.90;;;0.80;99.90;;;;;;4993428;28;20914;-73
2022/12/19 02:41:05;;;;;;;1999.90;999.90;;;0.90;99.90;;;;;;5002619;28;20450;-72
2022/12/19 02:43:38;;;;;;;1999.90;999.90;;;0.90;99.90;;;;;;5000764;28;20491;-73
2022/12/19 02:46:07;;;;;;;1999.90;999.90;;;0.90;99.90;;;;;;4996698;28;20836;-71
2022/12/19 02:48:34;;;;;;;1999.90;999.90;;;0.90;99.90;;;;;;4994802;28;21123;-72
2022/12/19 02:51:01;;;;;;;1999.90;999.90;;;1.00;99.90;;;;;;4993254;28;20457;-71
2022/12/19 02:53:28;;;;;;;1999.90;999.90;;;1.10;99.90;;;;;;4998925;28;20486;-72
2022/12/19 02:56:16;;;;;;;1999.90;999.90;;;1.10;99.90;;;;;;5004982;28;20484;-72
2022/12/19 02:59:11;;;;;;;1999.90;999.90;;;1.10;99.90;;;;;;4993341;28;20457;-71
2022/12/19 03:01:46;;;;;;;1999.90;999.90;;;1.00;99.90;;;;;;5006651;28;20964;-72
2022/12/19 03:04:20;;;;;;;1999.90;999.90;;;1.10;99.90;;;;;;4993331;28;20471;-71
2022/12/19 03:06:51;;;;;;;1999.90;999.90;;;1.10;99.90;;;;;;5002652;28;20445;-72
2022/12/19 03:09:24;;;;;;;1999.90;999.90;;;1.00;99.90;;;;;;4998069;28;21228;-72
2022/12/19 03:12:01;;;;;;;1999.90;999.90;;;1.10;99.90;;;;;;4995338;28;20464;-73
2022/12/19 03:14:31;;;;;;;1999.90;999.90;;;1.10;99.90;;;;;;5000803;28;20511;-72
2022/12/19 03:17:04;;;;;;;1999.90;999.90;;;1.10;99.90;;;;;;4994016;28;20462;-73
2022/12/19 03:19:32;;;;;;;1999.90;999.90;;;1.20;99.90;;;;;;5000983;28;20454;-72
2022/12/19 03:21:59;;;;;;;1999.90;999.90;;;1.20;99.90;;;;;;5001507;28;20449;-74
2022/12/19 03:24:26;;;;;;;1999.90;999.90;;;1.20;99.90;;;;;;4995199;28;20478;-72
2022/12/19 03:27:00;;;;;;;1999.90;999.90;;;1.20;99.90;;;;;;4995027;28;20454;-73
2022/12/19 03:29:31;;;;;;;1999.90;999.90;;;1.30;99.90;;;;;;4995456;28;20485;-71
2022/12/19 03:32:02;;;;;;;1999.90;999.90;;;1.30;99.90;;;;;;4992141;28;20457;-72
2022/12/19 03:34:35;;;;;;;1999.90;999.90;;;1.40;99.90;;;;;;4996273;28;20516;-72
2022/12/19 03:37:04;;;;;;;1999.90;999.90;;;1.40;99.90;;;;;;5005326;28;20449;-73
2022/12/19 03:39:32;;;;;;;1999.90;999.90;;;1.40;99.90;;;;;;4996495;28;20450;-72
2022/12/19 03:44:46;;;;;;;1999.90;999.90;;;1.40;99.90;;;;;;5008807;28;20437;-73
2022/12/19 03:47:18;;;;;;;1999.90;999.90;;;1.40;99.90;;;;;;5008583;28;21273;-72
2022/12/19 03:49:46;;;;;;;1999.90;999.90;;;1.40;99.90;;;;;;4999882;28;20450;-73
2022/12/19 03:52:24;;;;;;;1999.90;999.90;;;1.40;99.90;;;;;;5001560;28;20454;-72
2022/12/19 03:54:59;;;;;;;1999.90;999.90;;;1.40;99.90;;;;;;4995531;28;20477;-72
2022/12/19 03:57:29;;;;;;;1999.90;999.90;;;1.40;99.90;;;;;;4996083;28;20454;-73
2022/12/19 04:00:01;;;;;;;1999.90;999.90;;;1.40;99.90;;;;;;5003356;28;20454;-71
2022/12/19 04:02:34;;;;;;;1999.90;999.90;;;1.40;99.90;;;;;;4998138;28;20879;-72
2022/12/19 04:05:04;;;;;;;1999.90;999.90;;;1.50;99.90;;;;;;5004801;28;20474;-73
2022/12/19 04:07:32;;;;;;;1999.90;999.90;;;1.50;99.90;;;;;;5000465;28;20453;-73
2022/12/19 04:10:01;;;;;;;1999.90;999.90;;;1.50;99.90;;;;;;5005863;28;20460;-72
2022/12/19 04:12:33;;;;;;;1999.90;999.90;;;1.50;99.90;;;;;;4994159;28;20492;-73
2022/12/19 04:14:59;;;;;;;1999.90;999.90;;;1.50;99.90;;;;;;5003159;28;20452;-72
2022/12/19 04:17:34;;;;;;;1999.90;999.90;;;1.50;99.90;;;;;;4995239;28;20838;-73
2022/12/19 04:20:04;;;;;;;1999.90;999.90;;;1.50;99.90;;;;;;5000519;28;20453;-72
2022/12/19 04:22:35;;;;;;;1999.90;999.90;;;1.60;99.90;;;;;;5000507;28;20453;-73
2022/12/19 04:25:09;;;;;;;1999.90;999.90;;;1.50;99.90;;;;;;5000947;28;20474;-72
2022/12/19 04:27:39;;;;;;;1999.90;999.90;;;1.50;99.90;;;;;;4997985;28;20453;-72
2022/12/19 04:30:14;;;;;;;1999.90;999.90;;;1.50;99.90;;;;;;4994418;28;20467;-74
2022/12/19 04:32:46;;;;;;;1999.90;999.90;;;1.60;99.90;;;;;;5001040;28;20457;-71
2022/12/19 04:35:13;;;;;;;1999.90;999.90;;;1.60;99.90;;;;;;4992207;28;20477;-74
2022/12/19 04:37:40;;;;;;;1999.90;999.90;;;1.70;99.90;;;;;;4993282;28;20455;-72
2022/12/19 04:40:09;;;;;;;1999.90;999.90;;;1.70;99.90;;;;;;5000504;28;21046;-72
2022/12/19 04:42:35;;;;;;;1999.90;999.90;;;1.70;99.90;;;;;;4990310;28;20458;-72
2022/12/19 04:45:03;;;;;;;1999.90;999.90;;;1.60;99.90;;;;;;4991662;28;20978;-72
2022/12/19 04:47:29;;;;;;;1999.90;999.90;;;1.70;99.90;;;;;;4999419;28;21263;-72
2022/12/19 04:49:58;;;;;;;1999.90;999.90;;;1.60;99.90;;;;;;5001348;28;20450;-72
2022/12/19 04:52:24;;;;;;;1999.90;999.90;;;1.70;99.90;;;;;;4989992;28;20451;-72
2022/12/19 04:54:51;;;;;;;1999.90;999.90;;;1.60;99.90;;;;;;5004042;28;20495;-73
2022/12/19 04:57:18;;;;;;;1999.90;999.90;;;1.70;99.90;;;;;;5001641;28;20454;-73
2022/12/19 04:59:44;;;;;;;1999.90;999.90;;;1.70;99.90;;;;;;5001421;28;21193;-72
2022/12/19 05:02:11;;;;;;;1999.90;999.90;;;1.70;99.90;;;;;;5004829;28;20863;-73
2022/12/19 05:04:38;;;;;;;1999.90;999.90;;;1.80;99.90;;;;;;5005577;28;20491;-72
2022/12/19 05:07:06;;;;;;;1999.90;999.90;;;1.80;99.90;;;;;;4992294;28;20478;-72
2022/12/19 05:09:35;;;;;;;1999.90;999.90;;;1.80;99.90;;;;;;4997455;28;20458;-72
2022/12/19 05:12:02;;;;;;;1999.90;999.90;;;1.70;99.90;;;;;;4997713;28;20457;-72
2022/12/19 05:14:29;;;;;;;1999.90;999.90;;;1.80;99.90;;;;;;5000462;28;20485;-72
2022/12/19 05:16:56;;;;;;;1999.90;999.90;;;1.80;99.90;;;;;;4998381;28;20454;-71
2022/12/19 05:19:22;;;;;;;1999.90;999.90;;;1.90;99.90;;;;;;4997836;28;20451;-73
2022/12/19 05:21:49;;;;;;;1999.90;999.90;;;1.90;99.90;;;;;;4993716;28;20488;-72
2022/12/19 05:24:17;;;;;;;1999.90;999.90;;;1.90;99.90;;;;;;5006710;28;20462;-73
2022/12/19 05:26:44;;;;;;;1999.90;999.90;;;2.00;99.90;;;;;;5002103;28;20450;-73
2022/12/19 05:29:11;;;;;;;1999.90;999.90;;;1.90;99.90;;;;;;4998015;28;20475;-73
2022/12/19 05:31:38;;;;;;;1999.90;999.90;;;1.90;99.90;;;;;;4996448;28;20456;-74
2022/12/19 05:34:05;;;;;;;1999.90;999.90;;;1.90;99.90;;;;;;4999672;28;20991;-73
2022/12/19 05:36:32;;;;;;;1999.90;999.90;;;2.00;99.90;;;;;;5005402;28;20456;-73
2022/12/19 05:38:58;;;;;;;1999.90;999.90;;;2.00;99.90;;;;;;5007433;28;20459;-73
2022/12/19 05:41:27;;;;;;;1999.90;999.90;;;2.00;99.90;;;;;;4993868;28;20457;-73
2022/12/19 05:43:56;;;;;;;1999.90;999.90;;;2.00;99.90;;;;;;5004400;28;21010;-73
2022/12/19 05:46:24;;;;;;;1999.90;999.90;;;2.00;99.90;;;;;;5004747;28;20486;-74
2022/12/19 05:48:51;;;;;;;1999.90;999.90;;;2.00;99.90;;;;;;4997680;28;20457;-73
2022/12/19 05:51:18;;;;;;;1999.90;999.90;;;2.00;99.90;;;;;;4991231;28;20481;-72
2022/12/19 05:53:44;;;;;;;1999.90;999.90;;;1.90;99.90;;;;;;5002930;28;20485;-73
2022/12/19 05:56:13;;;;;;;1999.90;999.90;;;1.90;99.90;;;;;;4994053;28;21133;-72
2022/12/19 05:58:42;;;;;;;1999.90;999.90;;;2.00;99.90;;;;;;4997582;28;20458;-75
2022/12/19 06:01:11;;;;;;;1999.90;999.90;;;2.00;99.90;;;;;;4997019;28;20464;-73
2022/12/19 06:03:37;;;;;;;1999.90;999.90;;;2.00;99.90;;;;;;4992460;28;20477;-74
2022/12/19 06:06:06;;;;;;;1999.90;999.90;;;2.00;99.90;;;;;;4995527;28;20457;-74
2022/12/19 06:08:33;;;;;;;1999.90;999.90;;;2.00;99.90;;;;;;5008275;28;20464;-74
2022/12/19 06:11:00;;;;;;;1999.90;999.90;;;2.00;99.90;;;;;;5001949;28;20472;-74
2022/12/19 06:13:27;;;;;;;1999.90;999.90;;;2.00;99.90;;;;;;5004191;28;20485;-72
2022/12/19 06:15:59;;;;;;;1999.90;999.90;;;2.00;99.90;;;;;;4996843;28;20549;-73
2022/12/19 06:18:26;;;;;;;1999.90;999.90;;;2.00;99.90;;;;;;5004543;28;20454;-73
2022/12/19 06:20:57;;;;;;;1999.90;999.90;;;2.00;99.90;;;;;;5005226;28;21271;-72
2022/12/19 06:23:24;;;;;;;1999.90;999.90;;;2.00;99.90;;;;;;5001076;28;20477;-72
2022/12/19 06:25:51;;;;;;;1999.90;999.90;;;2.10;99.90;;;;;;5000722;28;20461;-73
2022/12/19 06:28:18;;;;;;;1999.90;999.90;;;2.10;99.90;;;;;;4996210;28;20816;-74
2022/12/19 06:30:45;;;;;;;1999.90;999.90;;;2.10;99.90;;;;;;4997820;28;20493;-73
2022/12/19 06:33:13;;;;;;;1999.90;999.90;;;2.00;99.90;;;;;;5004095;28;20457;-72
2022/12/19 06:35:40;;;;;;;1999.90;999.90;;;2.10;99.90;;;;;;5000817;28;20517;-73
2022/12/19 06:38:07;;;;;;;1999.90;999.90;;;2.10;99.90;;;;;;5004558;28;20450;-74
2022/12/19 06:43:18;;;;;;;1999.90;999.90;;;2.10;99.90;;;;;;4997981;28;20532;-73
2022/12/19 06:45:45;;;;;;;1999.90;999.90;;;2.10;99.90;;;;;;5003792;28;20458;-73
2022/12/19 06:48:13;;;;;;;1999.90;999.90;;;2.10;99.90;;;;;;5006789;28;20448;-73
2022/12/19 06:50:40;;;;;;;1999.90;999.90;;;2.10;99.90;;;;;;5008832;28;20465;-73
2022/12/19 06:53:07;;;;;;;1999.90;999.90;;;2.10;99.90;;;;;;4997437;28;20492;-73
2022/12/19 06:55:36;;;;;;;1999.90;999.90;;;2.20;99.90;;;;;;4999168;28;20512;-73
2022/12/19 06:58:03;;;;;;;1999.90;999.90;;;2.20;99.90;;;;;;4990065;28;20466;-73
2022/12/19 07:00:29;;;;;;;1999.90;999.90;;;2.20;99.90;;;;;;4997999;28;20453;-73
2022/12/19 07:02:58;;;;;;;1999.90;999.90;;;2.20;99.90;;;;;;5001643;28;20511;-74
2022/12/19 07:05:26;;;;;;;1999.90;999.90;;;2.20;99.90;;;;;;5008797;28;20446;-73
2022/12/19 07:07:53;;;;;;;1999.90;999.90;;;2.10;99.90;;;;;;5005291;28;20458;-73
2022/12/19 07:10:20;;;;;;;1999.90;999.90;;;2.20;99.90;;;;;;5001480;28;20454;-74
2022/12/19 07:12:47;;;;;;;1999.90;999.90;;;2.20;99.90;;;;;;5000685;28;20454;-75
2022/12/19 07:15:14;;;;;;;1999.90;999.90;;;2.20;99.90;;;;;;4997849;28;20570;-73
2022/12/19 07:17:41;;;;;;;1999.90;999.90;;;2.20;99.90;;;;;;4999847;28;20488;-74
2022/12/19 07:20:09;;;;;;;1999.90;999.90;;;2.20;99.90;;;;;;5000911;28;20454;-73
2022/12/19 07:22:37;;;;;;;1999.90;999.90;;;2.20;99.90;;;;;;4993075;28;20458;-73
2022/12/19 07:25:05;;;;;;;1999.90;999.90;;;2.20;99.90;;;;;;4991120;28;20468;-73
2022/12/19 07:27:32;;;;;;;1999.90;999.90;;;2.20;99.90;;;;;;4998956;28;21062;-73
2022/12/19 07:29:59;;;;;;;1999.90;999.90;;;2.20;99.90;;;;;;5008820;28;20461;-74
2022/12/19 07:32:26;;;;;;;1999.90;999.90;;;2.20;99.90;;;;;;5001213;28;20461;-72
2022/12/19 07:34:56;;;;;;;1999.90;999.90;;;2.20;99.90;;;;;;4999932;28;20496;-73
2022/12/19 07:37:23;;;;;;;1999.90;999.90;;;2.30;99.90;;;;;;4989545;28;20446;-73
2022/12/19 07:39:51;;;;;;;1999.90;999.90;;;2.30;99.90;;;;;;4996524;28;20446;-74
2022/12/19 07:42:19;;;;;;;1999.90;999.90;;;2.30;99.90;;;;;;5001906;28;20558;-73
2022/12/19 07:44:45;;;;;;;1999.90;999.90;;;2.30;99.90;;;;;;4992016;28;20502;-74
2022/12/19 07:47:12;;;;;;;1999.90;999.90;;;2.30;99.90;;;;;;4999762;28;20910;-75
2022/12/19 07:49:39;;;;;;;1999.90;999.90;;;2.40;99.90;;;;;;4993100;28;20473;-73
2022/12/19 07:52:06;;;;;;;1999.90;999.90;;;2.40;99.90;;;;;;4994161;28;20477;-73
2022/12/19 07:54:33;;;;;;;1999.90;999.90;;;2.50;99.90;;;;;;4996127;28;20509;-74
2022/12/19 07:57:03;;;;;;;1999.90;999.90;;;2.50;99.90;;;;;;4992465;28;20494;-74
2022/12/19 07:59:30;;;;;;;1999.90;999.90;;;2.60;99.90;;;;;;4999393;28;20543;-72
2022/12/19 08:01:57;;;;;;;1999.90;999.90;;;2.70;99.90;;;;;;4994567;28;20454;-72
2022/12/19 08:04:24;;;;;;;1999.90;999.90;;;2.70;99.90;;;;;;5001488;28;21212;-71
2022/12/19 08:06:51;;;;;;;1999.90;999.90;;;2.70;99.90;;;;;;4997044;28;20482;-74
2022/12/19 08:09:18;;;;;;;1999.90;999.90;;;2.70;99.90;;;;;;4994750;28;20450;-71
2022/12/19 08:11:44;;;;;;;1999.90;999.90;;;2.70;99.90;;;;;;4999382;28;20454;-72
2022/12/19 08:14:13;;;;;;;1999.90;999.90;;;2.70;99.90;;;;;;5007524;28;20508;-72
2022/12/19 08:16:39;;;;;;;1999.90;999.90;;;2.80;99.90;;;;;;5006972;28;20472;-72
2022/12/19 08:19:06;;;;;;;1999.90;999.90;;;2.80;99.90;;;;;;4996484;28;20456;-71
2022/12/19 08:21:34;;;;;;;1999.90;999.90;;;2.90;99.90;;;;;;4978703;28;20949;-73
2022/12/19 08:24:01;;;;;;;1999.90;999.90;;;2.90;99.90;;;;;;4999225;28;20481;-75
2022/12/19 08:26:28;;;;;;;1999.90;999.90;;;2.90;99.90;;;;;;5000832;28;20446;-75
2022/12/19 08:28:57;;;;;;;1999.90;999.90;;;3.00;99.90;;;;;;5000688;28;20449;-73
2022/12/19 08:31:27;;;;;;;1999.90;999.90;;;3.00;99.90;;;;;;4996283;28;20461;-74
2022/12/19 08:33:55;;;;;;;1999.90;999.90;;;3.10;99.90;;;;;;4998983;28;20478;-74
2022/12/19 08:36:23;;;;;;;1999.90;999.90;;;3.10;99.90;;;;;;4996670;28;20886;-73
2022/12/19 08:38:50;;;;;;;1999.90;999.90;;;3.20;99.90;;;;;;4997985;28;20461;-74
2022/12/19 08:41:18;;;;;;;1999.90;999.90;;;3.30;99.90;;;;;;5000506;28;20456;-75
2022/12/19 08:43:48;;;;;;;1999.90;999.90;;;3.30;99.90;;;;;;4997750;28;20476;-72
2022/12/19 08:46:16;;;;;;;1999.90;999.90;;;3.40;99.90;;;;;;4997679;28;20454;-73
2022/12/19 08:48:44;;;;;;;1999.90;999.90;;;3.50;99.90;;;;;;4999005;28;20960;-74
2022/12/19 08:51:13;;;;;;;1999.90;999.90;;;3.60;99.90;;;;;;4997149;28;20994;-73
2022/12/19 08:53:42;;;;;;;1999.90;999.90;;;3.50;99.90;;;;;;4993918;28;20477;-74
2022/12/19 08:56:13;;;;;;;1999.90;999.90;;;3.60;99.90;;;;;;4994019;28;20496;-71
2022/12/19 08:58:40;;;;;;;1999.90;999.90;;;3.60;99.90;;;;;;4995039;28;20462;-71
2022/12/19 09:01:08;;;;;;;1999.90;999.90;;;3.60;99.90;;;;;;4991695;28;21046;-72
2022/12/19 09:03:37;;;;;;;1999.90;999.90;;;3.60;99.90;;;;;;4993132;28;20471;-72
2022/12/19 09:06:06;;;;;;;1999.90;999.90;;;3.70;99.90;;;;;;4995563;28;20838;-74
2022/12/19 09:08:34;;;;;;;1999.90;999.90;;;3.80;99.90;;;;;;5000990;28;20461;-73
2022/12/19 09:11:03;;;;;;;1999.90;999.90;;;3.90;99.90;;;;;;5003217;28;20587;-71
2022/12/19 09:13:30;;;;;;;1999.90;999.90;;;3.90;99.90;;;;;;5006126;28;21235;-71
2022/12/19 09:16:01;;;;;;;1999.90;999.90;;;4.00;99.90;;;;;;5004469;28;20491;-70
2022/12/19 09:18:28;;;;;;;1999.90;999.90;;;4.00;99.90;;;;;;4997068;28;20454;-70
2022/12/19 09:20:55;;;;;;;1999.90;999.90;;;4.10;99.90;;;;;;5004974;28;20853;-71
2022/12/19 09:23:25;;;;;;;1999.90;999.90;;;4.20;99.90;;;;;;5003699;28;21082;-72
2022/12/19 09:25:52;;;;;;;1999.90;999.90;;;4.10;99.90;;;;;;5002364;28;20454;-70
2022/12/19 09:28:19;;;;;;;1999.90;999.90;;;4.10;99.90;;;;;;5003573;28;20464;-68
2022/12/19 09:30:54;;;;;;;1999.90;999.90;;;4.10;99.90;;;;;;5003749;28;20469;-72
2022/12/19 09:33:21;;;;;;;1999.90;999.90;;;4.00;99.90;;;;;;4998442;28;21194;-71
2022/12/19 09:35:50;;;;;;;1999.90;999.90;;;4.00;99.90;;;;;;5002754;28;20496;-70
2022/12/19 09:38:18;;;;;;;1999.90;999.90;;;3.90;99.90;;;;;;5002002;28;20458;-70
2022/12/19 09:40:58;;;;;;;1999.90;999.90;;;4.00;99.90;;;;;;5000866;28;20529;-71
2022/12/19 09:43:35;;;;;;;1999.90;999.90;;;4.00;99.90;;;;;;5000827;28;20480;-71
2022/12/19 09:46:15;;;;;;;1999.90;999.90;;;4.20;99.90;;;;;;4989850;28;20445;-74
2022/12/19 09:48:42;;;;;;;1999.90;999.90;;;4.40;99.90;;;;;;5001369;28;20461;-73
2022/12/19 09:51:14;;;;;;;1999.90;999.90;;;4.50;99.90;;;;;;4998097;28;20557;-73
2022/12/19 09:53:59;;;;;;;1999.90;999.90;;;4.80;99.90;;;;;;5000009;28;20919;-74
2022/12/19 09:56:31;;;;;;;1999.90;999.90;;;5.00;99.90;;;;;;4999377;28;20480;-74
2022/12/19 09:59:02;;;;;;;1999.90;999.90;;;5.10;99.90;;;;;;4998922;28;20454;-72
2022/12/19 10:01:33;;;;;;;1999.90;999.90;;;5.30;99.90;;;;;;5000024;28;20452;-73
2022/12/19 10:04:08;;;;;;;1999.90;999.90;;;5.50;99.90;;;;;;4994150;28;20509;-74
2022/12/19 10:06:35;;;;;;;1999.90;999.90;;;5.70;99.90;;;;;;4998303;28;21017;-73
2022/12/19 10:09:03;;;;;;;1999.90;999.90;;;5.90;99.90;;;;;;4999811;28;20453;-73
2022/12/19 10:11:47;;;;;;;1999.90;999.90;;;6.00;99.90;;;;;;5003634;28;20564;-74
2022/12/19 10:14:29;;;;;;;1999.90;999.90;;;6.10;99.90;;;;;;5002702;28;20475;-73
2022/12/19 10:17:06;;;;;;;1999.90;999.90;;;6.10;99.90;;;;;;5003463;28;20874;-74
2022/12/19 10:19:42;;;;;;;1999.90;999.90;;;6.00;99.90;;;;;;5000953;28;20488;-73
2022/12/19 10:22:22;;;;;;;1999.90;999.90;;;6.00;99.90;;;;;;5000974;28;20460;-73
2022/12/19 10:25:07;;;;;;;1999.90;999.90;;;6.00;99.90;;;;;;5003365;28;20552;-73
2022/12/19 10:27:42;;;;;;;1999.90;999.90;;;6.20;99.90;;;;;;5003300;28;20691;-72
2022/12/19 10:30:14;;;;;;;1999.90;999.90;;;6.30;99.90;;;;;;5003784;28;20450;-73
2022/12/19 10:32:51;;;;;;;1999.90;999.90;;;6.50;99.90;;;;;;5003456;28;20450;-73
2022/12/19 10:35:20;;;;;;;1999.90;999.90;;;6.60;99.90;;;;;;5005179;28;20914;-73
2022/12/19 10:37:51;;;;;;;1999.90;999.90;;;6.80;99.90;;;;;;5005506;28;20914;-72
2022/12/19 10:40:27;;;;;;;1999.90;999.90;;;6.90;99.90;;;;;;5005229;28;21026;-72
2022/12/19 10:43:00;;;;;;;1999.90;999.90;;;7.00;99.90;;;;;;5002535;28;21010;-74
2022/12/19 10:45:33;;;;;;;1999.90;999.90;;;7.10;99.90;;;;;;5001111;28;20457;-74
2022/12/19 10:48:00;;;;;;;1999.90;999.90;;;7.20;99.90;;;;;;5002497;28;20460;-73
2022/12/19 10:50:29;;;;;;;1999.90;999.90;;;7.20;99.90;;;;;;5005272;28;20449;-74
2022/12/19 10:53:07;;;;;;;1999.90;999.90;;;7.20;99.90;;;;;;5003377;28;20457;-74
2022/12/19 10:55:41;;;;;;;1999.90;999.90;;;7.20;99.90;;;;;;5001331;28;21031;-73
2022/12/19 10:58:19;;;;;;;1999.90;999.90;;;7.20;99.90;;;;;;5001783;28;20449;-73
2022/12/19 11:01:01;;;;;;;1999.90;999.90;;;7.10;99.90;;;;;;5002730;28;20462;-74
2022/12/19 11:03:28;;;;;;;1999.90;999.90;;;7.10;99.90;;;;;;4998047;28;20474;-73
2022/12/19 11:05:57;;;;;;;1999.90;999.90;;;7.10;99.90;;;;;;5003116;28;20445;-73
2022/12/19 11:08:26;;;;;;;1999.90;999.90;;;7.10;99.90;;;;;;5001524;28;21155;-73
2022/12/19 11:10:55;;;;;;;1999.90;999.90;;;7.00;99.90;;;;;;5003765;28;20446;-73
2022/12/19 11:13:25;;;;;;;1999.90;999.90;;;7.00;99.90;;;;;;5001084;28;21124;-73
2022/12/19 11:15:54;;;;;;;1999.90;999.90;;;6.90;99.90;;;;;;5002343;28;20491;-73
2022/12/19 11:18:21;;;;;;;1999.90;999.90;;;6.90;99.90;;;;;;5000780;28;20840;-73
2022/12/19 11:20:56;;;;;;;1999.90;999.90;;;7.00;99.90;;;;;;5002300;28;20466;-74
2022/12/19 11:23:25;;;;;;;1999.90;999.90;;;7.00;99.90;;;;;;5003894;28;20488;-74
2022/12/19 11:25:58;;;;;;;1999.90;999.90;;;7.00;99.90;;;;;;5003614;28;20970;-74
2022/12/19 11:28:31;;;;;;;1999.90;999.90;;;7.00;99.90;;;;;;5004671;28;20828;-73
2022/12/19 11:31:02;;;;;;;1999.90;999.90;;;7.00;99.90;;;;;;5000531;28;20832;-72
2022/12/19 11:33:28;;;;;;;1999.90;999.90;;;7.10;99.90;;;;;;4985367;28;21005;-73
2022/12/19 11:35:58;;;;;;;1999.90;999.90;;;7.10;99.90;;;;;;5001070;28;20478;-73
2022/12/19 11:38:34;;;;;;;1999.90;999.90;;;7.20;99.90;;;;;;5000761;28;20462;-74
2022/12/19 11:41:08;;;;;;;1999.90;999.90;;;7.20;99.90;;;;;;5003760;28;20460;-74
2022/12/19 11:43:44;;;;;;;1999.90;999.90;;;7.30;99.90;;;;;;5004380;28;20485;-73
2022/12/19 11:46:23;;;;;;;1999.90;999.90;;;7.30;99.90;;;;;;5000969;28;20584;-74
2022/12/19 11:48:53;;;;;;;1999.90;999.90;;;7.40;99.90;;;;;;5000185;28;20609;-74
2022/12/19 11:51:27;;;;;;;1999.90;999.90;;;7.60;99.90;;;;;;5001997;28;20446;-73
2022/12/19 11:54:01;;;;;;;1999.90;999.90;;;7.80;99.90;;;;;;4999207;28;20462;-74
2022/12/19 11:56:29;;;;;;;1999.90;999.90;;;8.00;99.90;;;;;;5002934;28;20576;-74
2022/12/19 11:59:02;;;;;;;1999.90;999.90;;;8.20;99.90;;;;;;5001333;28;20453;-74
2022/12/19 12:01:53;;;;;;;1999.90;999.90;;;8.40;99.90;;;;;;5001822;28;20465;-74
2022/12/19 12:04:51;;;;;;;1999.90;999.90;;;8.40;99.90;;;;;;5001917;28;20489;-73
2022/12/19 12:07:18;;;;;;;1999.90;999.90;;;8.60;99.90;;;;;;5002015;28;20477;-74
2022/12/19 12:09:53;;;;;;;1999.90;999.90;;;8.70;99.90;;;;;;5001221;28;21279;-73
2022/12/19 12:12:25;;;;;;;1999.90;999.90;;;8.80;99.90;;;;;;5001374;28;20460;-73
2022/12/19 12:15:09;;;;;;;1999.90;999.90;;;9.00;99.90;;;;;;4999462;28;20487;-74
2022/12/19 12:17:50;;;;;;;1999.90;999.90;;;9.10;99.90;;;;;;5001891;28;20455;-73
2022/12/19 12:20:30;;;;;;;1999.90;999.90;;;9.10;99.90;;;;;;5001418;28;20453;-74
2022/12/19 12:23:12;;;;;;;1999.90;999.90;;;9.10;99.90;;;;;;4999668;28;20480;-74
2022/12/19 12:25:48;;;;;;;1999.90;999.90;;;9.10;99.90;;;;;;5001479;28;20465;-74
2022/12/19 12:28:38;;;;;;;1999.90;999.90;;;9.00;99.90;;;;;;5000527;28;21071;-74
2022/12/19 12:31:12;;;;;;;1999.90;999.90;;;9.10;99.90;;;;;;5000303;28;20485;-73